sensor_id;sensor_type;location;lat;lon;timestamp;P1;durP1;ratioP1;P2;durP2;ratioP2
59424;SDS011;45231;44.826;20.312;2022-12-18T00:02:03;42.53;;;22.33;;
59424;SDS011;45231;44.826;20.312;2022-12-18T00:04:29;39.25;;;21.17;;
59424;SDS011;45231;44.826;20.312;2022-12-18T00:06:55;46.05;;;22.17;;
59424;SDS011;45231;44.826;20.312;2022-12-18T00:09:22;42.22;;;21.08;;
59424;SDS011;45231;44.826;20.312;2022-12-18T00:11:48;39.17;;;21.27;;
59424;SDS011;45231;44.826;20.312;2022-12-18T00:14:14;41.28;;;21.10;;
59424;SDS011;45231;44.826;20.312;2022-12-18T00:16:43;39.08;;;19.70;;
59424;SDS011;45231;44.826;20.312;2022-12-18T00:19:09;42.60;;;21.85;;
59424;SDS011;45231;44.826;20.312;2022-12-18T00:21:35;40.28;;;21.30;;
59424;SDS011;45231;44.826;20.312;2022-12-18T00:24:13;38.65;;;20.73;;
59424;SDS011;45231;44.826;20.312;2022-12-18T00:26:39;39.88;;;21.08;;
59424;SDS011;45231;44.826;20.312;2022-12-18T00:29:07;45.00;;;22.80;;
59424;SDS011;45231;44.826;20.312;2022-12-18T00:31:34;42.22;;;21.90;;
59424;SDS011;45231;44.826;20.312;2022-12-18T00:34:00;42.70;;;21.38;;
59424;SDS011;45231;44.826;20.312;2022-12-18T00:36:28;40.20;;;20.20;;
59424;SDS011;45231;44.826;20.312;2022-12-18T00:38:56;40.90;;;20.23;;
59424;SDS011;45231;44.826;20.312;2022-12-18T00:41:26;44.30;;;21.88;;
59424;SDS011;45231;44.826;20.312;2022-12-18T00:44:12;41.38;;;21.98;;
59424;SDS011;45231;44.826;20.312;2022-12-18T00:46:38;42.10;;;20.33;;
59424;SDS011;45231;44.826;20.312;2022-12-18T00:49:06;39.25;;;21.30;;
59424;SDS011;45231;44.826;20.312;2022-12-18T00:51:32;42.70;;;21.08;;
59424;SDS011;45231;44.826;20.312;2022-12-18T00:53:58;41.27;;;19.60;;
59424;SDS011;45231;44.826;20.312;2022-12-18T00:56:25;42.53;;;21.90;;
59424;SDS011;45231;44.826;20.312;2022-12-18T00:58:51;45.45;;;22.10;;
59424;SDS011;45231;44.826;20.312;2022-12-18T01:01:17;39.95;;;22.23;;
59424;SDS011;45231;44.826;20.312;2022-12-18T01:03:43;42.43;;;21.53;;
59424;SDS011;45231;44.826;20.312;2022-12-18T01:06:13;42.35;;;22.15;;
59424;SDS011;45231;44.826;20.312;2022-12-18T01:08:39;45.38;;;22.52;;
59424;SDS011;45231;44.826;20.312;2022-12-18T01:11:09;42.42;;;20.50;;
59424;SDS011;45231;44.826;20.312;2022-12-18T01:13:36;41.63;;;22.20;;
59424;SDS011;45231;44.826;20.312;2022-12-18T01:16:02;44.83;;;23.20;;
59424;SDS011;45231;44.826;20.312;2022-12-18T01:18:29;43.47;;;22.77;;
59424;SDS011;45231;44.826;20.312;2022-12-18T01:20:55;42.37;;;22.43;;
59424;SDS011;45231;44.826;20.312;2022-12-18T01:23:21;44.75;;;23.10;;
59424;SDS011;45231;44.826;20.312;2022-12-18T01:25:47;43.70;;;23.33;;
59424;SDS011;45231;44.826;20.312;2022-12-18T01:28:13;32.42;;;18.05;;
59424;SDS011;45231;44.826;20.312;2022-12-18T01:30:39;46.13;;;22.73;;
59424;SDS011;45231;44.826;20.312;2022-12-18T01:33:06;44.13;;;22.40;;
59424;SDS011;45231;44.826;20.312;2022-12-18T01:35:32;44.20;;;23.57;;
59424;SDS011;45231;44.826;20.312;2022-12-18T01:37:58;45.90;;;22.50;;
59424;SDS011;45231;44.826;20.312;2022-12-18T01:40:24;45.67;;;24.00;;
59424;SDS011;45231;44.826;20.312;2022-12-18T01:42:53;42.00;;;22.43;;
59424;SDS011;45231;44.826;20.312;2022-12-18T01:45:27;45.42;;;23.85;;
59424;SDS011;45231;44.826;20.312;2022-12-18T01:47:54;47.60;;;24.70;;
59424;SDS011;45231;44.826;20.312;2022-12-18T01:50:31;46.08;;;24.75;;
59424;SDS011;45231;44.826;20.312;2022-12-18T01:53:05;46.38;;;24.35;;
59424;SDS011;45231;44.826;20.312;2022-12-18T01:55:32;45.80;;;23.38;;
59424;SDS011;45231;44.826;20.312;2022-12-18T01:58:01;48.75;;;23.42;;
59424;SDS011;45231;44.826;20.312;2022-12-18T02:00:27;46.58;;;22.63;;
59424;SDS011;45231;44.826;20.312;2022-12-18T02:02:54;45.25;;;22.63;;
59424;SDS011;45231;44.826;20.312;2022-12-18T02:05:42;42.72;;;22.63;;
59424;SDS011;45231;44.826;20.312;2022-12-18T02:10:51;45.17;;;22.70;;
59424;SDS011;45231;44.826;20.312;2022-12-18T02:13:21;45.95;;;23.27;;
59424;SDS011;45231;44.826;20.312;2022-12-18T02:18:23;46.23;;;23.80;;
59424;SDS011;45231;44.826;20.312;2022-12-18T02:20:57;43.60;;;22.52;;
59424;SDS011;45231;44.826;20.312;2022-12-18T02:26:16;48.17;;;24.00;;
59424;SDS011;45231;44.826;20.312;2022-12-18T02:28:52;47.95;;;23.83;;
59424;SDS011;45231;44.826;20.312;2022-12-18T02:31:21;45.97;;;22.58;;
59424;SDS011;45231;44.826;20.312;2022-12-18T02:33:48;43.35;;;23.60;;
59424;SDS011;45231;44.826;20.312;2022-12-18T02:36:15;43.00;;;22.83;;
59424;SDS011;45231;44.826;20.312;2022-12-18T02:38:42;45.95;;;23.85;;
59424;SDS011;45231;44.826;20.312;2022-12-18T02:41:10;45.05;;;22.98;;
59424;SDS011;45231;44.826;20.312;2022-12-18T02:43:36;45.15;;;24.73;;
59424;SDS011;45231;44.826;20.312;2022-12-18T02:46:20;49.47;;;24.70;;
59424;SDS011;45231;44.826;20.312;2022-12-18T02:48:48;46.58;;;24.23;;
59424;SDS011;45231;44.826;20.312;2022-12-18T02:51:22;40.53;;;21.65;;
59424;SDS011;45231;44.826;20.312;2022-12-18T02:54:05;52.40;;;25.63;;
59424;SDS011;45231;44.826;20.312;2022-12-18T02:56:38;45.88;;;25.08;;
59424;SDS011;45231;44.826;20.312;2022-12-18T02:59:09;44.95;;;23.23;;
59424;SDS011;45231;44.826;20.312;2022-12-18T03:01:38;44.25;;;23.13;;
59424;SDS011;45231;44.826;20.312;2022-12-18T03:04:30;43.80;;;23.75;;
59424;SDS011;45231;44.826;20.312;2022-12-18T03:06:55;44.33;;;23.00;;
59424;SDS011;45231;44.826;20.312;2022-12-18T03:11:52;46.28;;;22.02;;
59424;SDS011;45231;44.826;20.312;2022-12-18T03:14:39;41.15;;;21.15;;
59424;SDS011;45231;44.826;20.312;2022-12-18T03:17:06;41.22;;;20.92;;
59424;SDS011;45231;44.826;20.312;2022-12-18T03:19:33;44.78;;;22.13;;
59424;SDS011;45231;44.826;20.312;2022-12-18T03:22:01;41.72;;;21.80;;
59424;SDS011;45231;44.826;20.312;2022-12-18T03:24:28;42.17;;;21.33;;
59424;SDS011;45231;44.826;20.312;2022-12-18T03:27:01;41.92;;;21.20;;
59424;SDS011;45231;44.826;20.312;2022-12-18T03:29:31;44.00;;;21.98;;
59424;SDS011;45231;44.826;20.312;2022-12-18T03:32:02;44.33;;;21.60;;
59424;SDS011;45231;44.826;20.312;2022-12-18T03:34:30;41.85;;;21.83;;
59424;SDS011;45231;44.826;20.312;2022-12-18T03:36:58;42.33;;;21.60;;
59424;SDS011;45231;44.826;20.312;2022-12-18T03:39:24;44.28;;;22.10;;
59424;SDS011;45231;44.826;20.312;2022-12-18T03:41:51;44.90;;;21.63;;
59424;SDS011;45231;44.826;20.312;2022-12-18T03:49:38;42.33;;;22.02;;
59424;SDS011;45231;44.826;20.312;2022-12-18T03:52:16;42.83;;;22.70;;
59424;SDS011;45231;44.826;20.312;2022-12-18T03:54:44;39.67;;;21.70;;
59424;SDS011;45231;44.826;20.312;2022-12-18T03:59:37;44.22;;;22.77;;
59424;SDS011;45231;44.826;20.312;2022-12-18T04:02:04;44.63;;;21.75;;
59424;SDS011;45231;44.826;20.312;2022-12-18T04:04:32;43.30;;;23.23;;
59424;SDS011;45231;44.826;20.312;2022-12-18T04:06:59;43.63;;;21.98;;
59424;SDS011;45231;44.826;20.312;2022-12-18T04:09:26;42.75;;;22.25;;
59424;SDS011;45231;44.826;20.312;2022-12-18T04:11:53;44.75;;;22.98;;
59424;SDS011;45231;44.826;20.312;2022-12-18T04:14:19;42.73;;;21.17;;
59424;SDS011;45231;44.826;20.312;2022-12-18T04:16:45;41.67;;;21.47;;
59424;SDS011;45231;44.826;20.312;2022-12-18T04:19:11;44.00;;;22.37;;
59424;SDS011;45231;44.826;20.312;2022-12-18T04:21:37;44.92;;;22.05;;
59424;SDS011;45231;44.826;20.312;2022-12-18T04:24:04;41.08;;;21.55;;
59424;SDS011;45231;44.826;20.312;2022-12-18T04:26:30;41.33;;;21.77;;
59424;SDS011;45231;44.826;20.312;2022-12-18T04:28:56;45.00;;;22.23;;
59424;SDS011;45231;44.826;20.312;2022-12-18T04:31:22;43.25;;;22.35;;
59424;SDS011;45231;44.826;20.312;2022-12-18T04:33:49;47.30;;;23.50;;
59424;SDS011;45231;44.826;20.312;2022-12-18T04:36:15;43.55;;;22.15;;
59424;SDS011;45231;44.826;20.312;2022-12-18T04:38:41;45.63;;;21.97;;
59424;SDS011;45231;44.826;20.312;2022-12-18T04:41:07;48.83;;;23.55;;
59424;SDS011;45231;44.826;20.312;2022-12-18T04:43:34;43.33;;;23.52;;
59424;SDS011;45231;44.826;20.312;2022-12-18T04:46:06;46.78;;;23.67;;
59424;SDS011;45231;44.826;20.312;2022-12-18T04:48:33;47.92;;;22.75;;
59424;SDS011;45231;44.826;20.312;2022-12-18T04:51:00;43.53;;;21.80;;
59424;SDS011;45231;44.826;20.312;2022-12-18T04:53:26;45.63;;;24.42;;
59424;SDS011;45231;44.826;20.312;2022-12-18T04:58:48;45.65;;;22.00;;
59424;SDS011;45231;44.826;20.312;2022-12-18T05:01:23;43.97;;;22.85;;
59424;SDS011;45231;44.826;20.312;2022-12-18T05:03:50;47.90;;;23.83;;
59424;SDS011;45231;44.826;20.312;2022-12-18T05:06:16;50.22;;;23.75;;
59424;SDS011;45231;44.826;20.312;2022-12-18T05:08:43;49.30;;;24.17;;
59424;SDS011;45231;44.826;20.312;2022-12-18T05:11:10;47.50;;;23.07;;
59424;SDS011;45231;44.826;20.312;2022-12-18T05:13:41;44.63;;;23.50;;
59424;SDS011;45231;44.826;20.312;2022-12-18T05:16:07;46.83;;;22.45;;
59424;SDS011;45231;44.826;20.312;2022-12-18T05:18:33;47.20;;;23.33;;
59424;SDS011;45231;44.826;20.312;2022-12-18T05:21:00;48.87;;;24.30;;
59424;SDS011;45231;44.826;20.312;2022-12-18T05:23:26;43.85;;;21.73;;
59424;SDS011;45231;44.826;20.312;2022-12-18T05:25:56;45.80;;;22.92;;
59424;SDS011;45231;44.826;20.312;2022-12-18T05:28:23;48.08;;;22.90;;
59424;SDS011;45231;44.826;20.312;2022-12-18T05:30:53;46.10;;;23.50;;
59424;SDS011;45231;44.826;20.312;2022-12-18T05:33:21;48.63;;;25.15;;
59424;SDS011;45231;44.826;20.312;2022-12-18T05:38:13;51.88;;;26.02;;
59424;SDS011;45231;44.826;20.312;2022-12-18T05:40:41;54.75;;;26.33;;
59424;SDS011;45231;44.826;20.312;2022-12-18T05:43:08;51.65;;;27.00;;
59424;SDS011;45231;44.826;20.312;2022-12-18T05:45:36;54.97;;;27.80;;
59424;SDS011;45231;44.826;20.312;2022-12-18T05:48:03;54.22;;;27.48;;
59424;SDS011;45231;44.826;20.312;2022-12-18T05:50:29;51.97;;;25.77;;
59424;SDS011;45231;44.826;20.312;2022-12-18T05:52:55;56.87;;;26.67;;
59424;SDS011;45231;44.826;20.312;2022-12-18T05:55:21;52.20;;;26.07;;
59424;SDS011;45231;44.826;20.312;2022-12-18T05:57:48;48.47;;;25.53;;
59424;SDS011;45231;44.826;20.312;2022-12-18T06:00:16;54.20;;;26.10;;
59424;SDS011;45231;44.826;20.312;2022-12-18T06:02:46;51.58;;;25.95;;
59424;SDS011;45231;44.826;20.312;2022-12-18T06:05:12;54.53;;;25.60;;
59424;SDS011;45231;44.826;20.312;2022-12-18T06:07:38;54.67;;;27.43;;
59424;SDS011;45231;44.826;20.312;2022-12-18T06:10:04;58.57;;;26.47;;
59424;SDS011;45231;44.826;20.312;2022-12-18T06:12:40;57.78;;;26.42;;
59424;SDS011;45231;44.826;20.312;2022-12-18T06:15:06;53.42;;;27.00;;
59424;SDS011;45231;44.826;20.312;2022-12-18T06:17:36;57.50;;;26.35;;
59424;SDS011;45231;44.826;20.312;2022-12-18T06:20:03;52.45;;;25.95;;
59424;SDS011;45231;44.826;20.312;2022-12-18T06:22:41;52.13;;;26.45;;
59424;SDS011;45231;44.826;20.312;2022-12-18T06:25:08;52.90;;;27.20;;
59424;SDS011;45231;44.826;20.312;2022-12-18T06:27:34;54.17;;;26.00;;
59424;SDS011;45231;44.826;20.312;2022-12-18T06:30:00;54.70;;;26.07;;
59424;SDS011;45231;44.826;20.312;2022-12-18T06:32:27;54.60;;;26.48;;
59424;SDS011;45231;44.826;20.312;2022-12-18T06:34:53;53.58;;;26.63;;
59424;SDS011;45231;44.826;20.312;2022-12-18T06:37:22;57.40;;;27.30;;
59424;SDS011;45231;44.826;20.312;2022-12-18T06:39:52;53.88;;;26.17;;
59424;SDS011;45231;44.826;20.312;2022-12-18T06:42:18;57.13;;;26.58;;
59424;SDS011;45231;44.826;20.312;2022-12-18T06:44:44;58.87;;;27.43;;
59424;SDS011;45231;44.826;20.312;2022-12-18T06:47:11;44.13;;;21.33;;
59424;SDS011;45231;44.826;20.312;2022-12-18T06:49:37;54.88;;;27.67;;
59424;SDS011;45231;44.826;20.312;2022-12-18T06:52:03;59.55;;;28.02;;
59424;SDS011;45231;44.826;20.312;2022-12-18T06:54:30;54.50;;;26.97;;
59424;SDS011;45231;44.826;20.312;2022-12-18T06:56:56;53.58;;;27.27;;
59424;SDS011;45231;44.826;20.312;2022-12-18T06:59:22;66.18;;;29.08;;
59424;SDS011;45231;44.826;20.312;2022-12-18T07:04:28;53.90;;;26.88;;
59424;SDS011;45231;44.826;20.312;2022-12-18T07:06:55;49.78;;;26.60;;
59424;SDS011;45231;44.826;20.312;2022-12-18T07:09:21;52.07;;;27.70;;
59424;SDS011;45231;44.826;20.312;2022-12-18T07:11:47;46.97;;;26.07;;
59424;SDS011;45231;44.826;20.312;2022-12-18T07:14:13;45.05;;;25.75;;
59424;SDS011;45231;44.826;20.312;2022-12-18T07:16:39;50.63;;;27.27;;
59424;SDS011;45231;44.826;20.312;2022-12-18T07:19:05;42.42;;;25.30;;
59424;SDS011;45231;44.826;20.312;2022-12-18T07:21:31;45.45;;;26.30;;
59424;SDS011;45231;44.826;20.312;2022-12-18T07:23:57;43.73;;;26.73;;
59424;SDS011;45231;44.826;20.312;2022-12-18T07:26:24;40.88;;;25.67;;
59424;SDS011;45231;44.826;20.312;2022-12-18T07:28:53;40.25;;;24.85;;
59424;SDS011;45231;44.826;20.312;2022-12-18T07:31:20;38.90;;;24.85;;
59424;SDS011;45231;44.826;20.312;2022-12-18T07:33:47;40.35;;;26.55;;
59424;SDS011;45231;44.826;20.312;2022-12-18T07:36:13;38.67;;;26.48;;
59424;SDS011;45231;44.826;20.312;2022-12-18T07:41:10;42.17;;;27.05;;
59424;SDS011;45231;44.826;20.312;2022-12-18T07:43:36;38.60;;;25.63;;
59424;SDS011;45231;44.826;20.312;2022-12-18T07:46:03;36.95;;;25.95;;
59424;SDS011;45231;44.826;20.312;2022-12-18T07:48:29;40.17;;;26.70;;
59424;SDS011;45231;44.826;20.312;2022-12-18T07:50:59;38.78;;;26.50;;
59424;SDS011;45231;44.826;20.312;2022-12-18T07:53:26;39.42;;;26.95;;
59424;SDS011;45231;44.826;20.312;2022-12-18T07:56:10;36.10;;;25.42;;
59424;SDS011;45231;44.826;20.312;2022-12-18T07:58:37;39.65;;;27.48;;
59424;SDS011;45231;44.826;20.312;2022-12-18T08:01:07;43.90;;;30.77;;
59424;SDS011;45231;44.826;20.312;2022-12-18T08:03:33;42.35;;;30.08;;
59424;SDS011;45231;44.826;20.312;2022-12-18T08:06:00;41.45;;;30.58;;
59424;SDS011;45231;44.826;20.312;2022-12-18T08:10:52;39.35;;;28.50;;
59424;SDS011;45231;44.826;20.312;2022-12-18T08:13:18;37.63;;;26.85;;
59424;SDS011;45231;44.826;20.312;2022-12-18T08:15:44;39.72;;;28.40;;
59424;SDS011;45231;44.826;20.312;2022-12-18T08:18:10;38.25;;;27.10;;
59424;SDS011;45231;44.826;20.312;2022-12-18T08:20:36;38.17;;;26.63;;
59424;SDS011;45231;44.826;20.312;2022-12-18T08:23:02;38.88;;;27.70;;
59424;SDS011;45231;44.826;20.312;2022-12-18T08:25:28;36.78;;;27.17;;
59424;SDS011;45231;44.826;20.312;2022-12-18T08:27:54;38.33;;;27.35;;
59424;SDS011;45231;44.826;20.312;2022-12-18T08:30:21;41.25;;;28.70;;
59424;SDS011;45231;44.826;20.312;2022-12-18T08:32:50;38.08;;;27.02;;
59424;SDS011;45231;44.826;20.312;2022-12-18T08:35:17;42.42;;;27.75;;
59424;SDS011;45231;44.826;20.312;2022-12-18T08:37:43;37.83;;;26.63;;
59424;SDS011;45231;44.826;20.312;2022-12-18T08:40:10;41.78;;;30.08;;
59424;SDS011;45231;44.826;20.312;2022-12-18T08:42:36;42.30;;;29.77;;
59424;SDS011;45231;44.826;20.312;2022-12-18T08:45:20;40.42;;;29.88;;
59424;SDS011;45231;44.826;20.312;2022-12-18T08:47:46;42.20;;;29.70;;
59424;SDS011;45231;44.826;20.312;2022-12-18T08:50:12;46.22;;;33.10;;
59424;SDS011;45231;44.826;20.312;2022-12-18T08:52:39;58.97;;;39.33;;
59424;SDS011;45231;44.826;20.312;2022-12-18T08:55:06;42.63;;;30.15;;
59424;SDS011;45231;44.826;20.312;2022-12-18T08:57:32;38.60;;;27.55;;
59424;SDS011;45231;44.826;20.312;2022-12-18T08:59:58;40.95;;;27.73;;
59424;SDS011;45231;44.826;20.312;2022-12-18T09:02:24;38.60;;;27.38;;
59424;SDS011;45231;44.826;20.312;2022-12-18T09:04:50;40.35;;;28.52;;
59424;SDS011;45231;44.826;20.312;2022-12-18T09:07:16;42.70;;;29.15;;
59424;SDS011;45231;44.826;20.312;2022-12-18T09:09:42;46.05;;;29.33;;
59424;SDS011;45231;44.826;20.312;2022-12-18T09:12:08;39.10;;;27.42;;
59424;SDS011;45231;44.826;20.312;2022-12-18T09:14:35;43.40;;;29.15;;
59424;SDS011;45231;44.826;20.312;2022-12-18T09:17:01;42.72;;;27.65;;
59424;SDS011;45231;44.826;20.312;2022-12-18T09:19:27;41.07;;;26.87;;
59424;SDS011;45231;44.826;20.312;2022-12-18T09:21:53;42.67;;;28.40;;
59424;SDS011;45231;44.826;20.312;2022-12-18T09:24:19;41.67;;;28.20;;
59424;SDS011;45231;44.826;20.312;2022-12-18T09:26:45;40.92;;;27.05;;
59424;SDS011;45231;44.826;20.312;2022-12-18T09:29:11;44.97;;;27.70;;
59424;SDS011;45231;44.826;20.312;2022-12-18T09:31:37;43.13;;;27.60;;
59424;SDS011;45231;44.826;20.312;2022-12-18T09:34:04;44.85;;;27.73;;
59424;SDS011;45231;44.826;20.312;2022-12-18T09:36:30;45.27;;;27.30;;
59424;SDS011;45231;44.826;20.312;2022-12-18T09:38:56;40.87;;;25.53;;
59424;SDS011;45231;44.826;20.312;2022-12-18T09:44:01;45.05;;;28.48;;
59424;SDS011;45231;44.826;20.312;2022-12-18T09:46:30;43.33;;;26.02;;
59424;SDS011;45231;44.826;20.312;2022-12-18T09:48:59;44.28;;;26.83;;
59424;SDS011;45231;44.826;20.312;2022-12-18T09:51:30;43.38;;;27.65;;
59424;SDS011;45231;44.826;20.312;2022-12-18T09:54:02;43.40;;;27.23;;
59424;SDS011;45231;44.826;20.312;2022-12-18T09:56:31;43.80;;;26.52;;
59424;SDS011;45231;44.826;20.312;2022-12-18T09:59:01;46.83;;;27.60;;
59424;SDS011;45231;44.826;20.312;2022-12-18T10:01:28;44.47;;;26.27;;
59424;SDS011;45231;44.826;20.312;2022-12-18T10:03:54;50.80;;;29.40;;
59424;SDS011;45231;44.826;20.312;2022-12-18T10:08:55;48.20;;;28.17;;
59424;SDS011;45231;44.826;20.312;2022-12-18T10:11:34;49.80;;;28.75;;
59424;SDS011;45231;44.826;20.312;2022-12-18T10:17:05;50.38;;;28.73;;
59424;SDS011;45231;44.826;20.312;2022-12-18T10:19:36;50.97;;;29.17;;
59424;SDS011;45231;44.826;20.312;2022-12-18T10:22:16;46.63;;;27.95;;
59424;SDS011;45231;44.826;20.312;2022-12-18T10:24:48;54.55;;;29.02;;
59424;SDS011;45231;44.826;20.312;2022-12-18T10:27:18;53.30;;;29.60;;
59424;SDS011;45231;44.826;20.312;2022-12-18T10:29:47;60.40;;;33.40;;
59424;SDS011;45231;44.826;20.312;2022-12-18T10:32:17;59.88;;;33.17;;
59424;SDS011;45231;44.826;20.312;2022-12-18T10:34:45;53.05;;;28.95;;
59424;SDS011;45231;44.826;20.312;2022-12-18T10:37:18;47.58;;;26.15;;
59424;SDS011;45231;44.826;20.312;2022-12-18T10:39:45;48.22;;;27.33;;
59424;SDS011;45231;44.826;20.312;2022-12-18T10:42:15;52.35;;;27.80;;
59424;SDS011;45231;44.826;20.312;2022-12-18T10:44:42;48.55;;;26.55;;
59424;SDS011;45231;44.826;20.312;2022-12-18T10:47:11;51.22;;;26.20;;
59424;SDS011;45231;44.826;20.312;2022-12-18T10:49:37;48.08;;;27.15;;
59424;SDS011;45231;44.826;20.312;2022-12-18T10:52:12;47.50;;;26.30;;
59424;SDS011;45231;44.826;20.312;2022-12-18T10:54:45;45.13;;;26.00;;
59424;SDS011;45231;44.826;20.312;2022-12-18T10:59:54;49.38;;;26.48;;
59424;SDS011;45231;44.826;20.312;2022-12-18T11:02:28;50.22;;;27.67;;
59424;SDS011;45231;44.826;20.312;2022-12-18T11:04:54;49.88;;;27.77;;
59424;SDS011;45231;44.826;20.312;2022-12-18T11:07:20;54.17;;;28.38;;
59424;SDS011;45231;44.826;20.312;2022-12-18T11:09:59;49.37;;;27.10;;
59424;SDS011;45231;44.826;20.312;2022-12-18T11:12:25;57.15;;;30.55;;
59424;SDS011;45231;44.826;20.312;2022-12-18T11:14:53;53.65;;;28.63;;
59424;SDS011;45231;44.826;20.312;2022-12-18T11:17:34;53.25;;;29.20;;
59424;SDS011;45231;44.826;20.312;2022-12-18T11:20:02;52.53;;;26.88;;
59424;SDS011;45231;44.826;20.312;2022-12-18T11:22:30;49.15;;;26.80;;
59424;SDS011;45231;44.826;20.312;2022-12-18T11:25:00;48.65;;;27.38;;
59424;SDS011;45231;44.826;20.312;2022-12-18T11:27:30;47.97;;;26.90;;
59424;SDS011;45231;44.826;20.312;2022-12-18T11:38:04;50.35;;;27.13;;
59424;SDS011;45231;44.826;20.312;2022-12-18T11:40:35;50.67;;;28.60;;
59424;SDS011;45231;44.826;20.312;2022-12-18T11:43:06;49.38;;;28.52;;
59424;SDS011;45231;44.826;20.312;2022-12-18T11:45:37;46.35;;;27.08;;
59424;SDS011;45231;44.826;20.312;2022-12-18T11:48:21;52.63;;;27.98;;
59424;SDS011;45231;44.826;20.312;2022-12-18T11:50:52;53.80;;;29.42;;
59424;SDS011;45231;44.826;20.312;2022-12-18T11:53:19;54.15;;;28.02;;
59424;SDS011;45231;44.826;20.312;2022-12-18T12:13:46;54.63;;;27.97;;
59424;SDS011;45231;44.826;20.312;2022-12-18T12:26:22;59.80;;;31.83;;
59424;SDS011;45231;44.826;20.312;2022-12-18T12:33:56;55.10;;;30.33;;
59424;SDS011;45231;44.826;20.312;2022-12-18T12:36:34;61.97;;;32.47;;
59424;SDS011;45231;44.826;20.312;2022-12-18T12:39:03;58.00;;;31.42;;
59424;SDS011;45231;44.826;20.312;2022-12-18T12:41:32;55.55;;;28.90;;
59424;SDS011;45231;44.826;20.312;2022-12-18T12:44:41;53.75;;;30.00;;
59424;SDS011;45231;44.826;20.312;2022-12-18T12:47:07;62.15;;;32.33;;
59424;SDS011;45231;44.826;20.312;2022-12-18T12:49:36;57.53;;;30.83;;
59424;SDS011;45231;44.826;20.312;2022-12-18T12:52:14;59.35;;;30.45;;
59424;SDS011;45231;44.826;20.312;2022-12-18T12:57:19;56.13;;;29.27;;
59424;SDS011;45231;44.826;20.312;2022-12-18T13:02:23;50.28;;;27.38;;
59424;SDS011;45231;44.826;20.312;2022-12-18T13:04:56;54.58;;;29.38;;
59424;SDS011;45231;44.826;20.312;2022-12-18T13:07:38;57.75;;;30.98;;
59424;SDS011;45231;44.826;20.312;2022-12-18T13:12:57;57.10;;;30.17;;
59424;SDS011;45231;44.826;20.312;2022-12-18T13:15:31;58.00;;;30.67;;
59424;SDS011;45231;44.826;20.312;2022-12-18T13:20:34;58.40;;;29.92;;
59424;SDS011;45231;44.826;20.312;2022-12-18T13:23:18;55.00;;;28.92;;
59424;SDS011;45231;44.826;20.312;2022-12-18T13:25:44;55.47;;;30.70;;
59424;SDS011;45231;44.826;20.312;2022-12-18T13:28:16;56.50;;;29.77;;
59424;SDS011;45231;44.826;20.312;2022-12-18T13:30:47;57.15;;;30.95;;
59424;SDS011;45231;44.826;20.312;2022-12-18T13:38:32;58.85;;;30.33;;
59424;SDS011;45231;44.826;20.312;2022-12-18T13:40:58;54.28;;;28.55;;
59424;SDS011;45231;44.826;20.312;2022-12-18T13:43:32;61.67;;;30.88;;
59424;SDS011;45231;44.826;20.312;2022-12-18T13:46:00;56.25;;;30.20;;
59424;SDS011;45231;44.826;20.312;2022-12-18T13:48:27;61.38;;;30.08;;
59424;SDS011;45231;44.826;20.312;2022-12-18T13:51:09;61.67;;;29.52;;
59424;SDS011;45231;44.826;20.312;2022-12-18T13:53:43;60.63;;;29.13;;
59424;SDS011;45231;44.826;20.312;2022-12-18T13:56:15;58.42;;;30.65;;
59424;SDS011;45231;44.826;20.312;2022-12-18T13:58:41;59.75;;;29.50;;
59424;SDS011;45231;44.826;20.312;2022-12-18T14:01:23;58.50;;;30.77;;
59424;SDS011;45231;44.826;20.312;2022-12-18T14:03:52;56.28;;;30.63;;
59424;SDS011;45231;44.826;20.312;2022-12-18T14:06:34;57.15;;;30.55;;
59424;SDS011;45231;44.826;20.312;2022-12-18T14:09:04;61.70;;;31.80;;
59424;SDS011;45231;44.826;20.312;2022-12-18T14:11:30;66.47;;;32.47;;
59424;SDS011;45231;44.826;20.312;2022-12-18T14:13:56;62.40;;;32.10;;
59424;SDS011;45231;44.826;20.312;2022-12-18T14:16:25;63.08;;;31.27;;
59424;SDS011;45231;44.826;20.312;2022-12-18T14:18:55;58.92;;;30.75;;
59424;SDS011;45231;44.826;20.312;2022-12-18T14:21:26;63.42;;;31.55;;
59424;SDS011;45231;44.826;20.312;2022-12-18T14:24:02;79.28;;;36.42;;
59424;SDS011;45231;44.826;20.312;2022-12-18T14:26:32;68.75;;;35.28;;
59424;SDS011;45231;44.826;20.312;2022-12-18T14:29:00;59.03;;;30.17;;
59424;SDS011;45231;44.826;20.312;2022-12-18T14:31:30;61.28;;;31.58;;
59424;SDS011;45231;44.826;20.312;2022-12-18T14:33:56;65.18;;;32.92;;
59424;SDS011;45231;44.826;20.312;2022-12-18T14:36:24;65.20;;;31.52;;
59424;SDS011;45231;44.826;20.312;2022-12-18T14:38:51;54.35;;;28.40;;
59424;SDS011;45231;44.826;20.312;2022-12-18T14:41:18;59.13;;;30.10;;
59424;SDS011;45231;44.826;20.312;2022-12-18T14:43:49;65.07;;;33.58;;
59424;SDS011;45231;44.826;20.312;2022-12-18T14:48:51;66.78;;;32.78;;
59424;SDS011;45231;44.826;20.312;2022-12-18T14:51:22;62.95;;;32.97;;
59424;SDS011;45231;44.826;20.312;2022-12-18T14:56:21;66.15;;;33.95;;
59424;SDS011;45231;44.826;20.312;2022-12-18T14:58:49;66.97;;;33.90;;
59424;SDS011;45231;44.826;20.312;2022-12-18T15:01:20;64.18;;;34.28;;
59424;SDS011;45231;44.826;20.312;2022-12-18T15:03:47;65.30;;;34.30;;
59424;SDS011;45231;44.826;20.312;2022-12-18T15:06:18;77.35;;;39.42;;
59424;SDS011;45231;44.826;20.312;2022-12-18T15:08:49;75.05;;;38.00;;
59424;SDS011;45231;44.826;20.312;2022-12-18T15:13:51;88.55;;;50.00;;
59424;SDS011;45231;44.826;20.312;2022-12-18T15:16:18;75.72;;;40.10;;
59424;SDS011;45231;44.826;20.312;2022-12-18T15:18:45;71.13;;;39.33;;
59424;SDS011;45231;44.826;20.312;2022-12-18T15:21:17;79.85;;;38.83;;
59424;SDS011;45231;44.826;20.312;2022-12-18T15:26:11;90.65;;;40.50;;
59424;SDS011;45231;44.826;20.312;2022-12-18T15:31:20;87.68;;;40.60;;
59424;SDS011;45231;44.826;20.312;2022-12-18T15:36:33;72.75;;;35.97;;
59424;SDS011;45231;44.826;20.312;2022-12-18T15:39:03;69.93;;;35.10;;
59424;SDS011;45231;44.826;20.312;2022-12-18T15:41:30;69.65;;;33.45;;
59424;SDS011;45231;44.826;20.312;2022-12-18T15:43:58;71.72;;;36.75;;
59424;SDS011;45231;44.826;20.312;2022-12-18T15:46:24;65.10;;;33.17;;
59424;SDS011;45231;44.826;20.312;2022-12-18T15:48:52;73.68;;;35.88;;
59424;SDS011;45231;44.826;20.312;2022-12-18T15:51:29;69.38;;;34.53;;
59424;SDS011;45231;44.826;20.312;2022-12-18T15:54:05;71.28;;;37.80;;
59424;SDS011;45231;44.826;20.312;2022-12-18T15:56:38;75.50;;;38.90;;
59424;SDS011;45231;44.826;20.312;2022-12-18T15:59:29;80.78;;;37.63;;
59424;SDS011;45231;44.826;20.312;2022-12-18T16:01:55;81.55;;;38.92;;
59424;SDS011;45231;44.826;20.312;2022-12-18T16:04:24;86.50;;;40.85;;
59424;SDS011;45231;44.826;20.312;2022-12-18T16:07:01;87.35;;;41.17;;
59424;SDS011;45231;44.826;20.312;2022-12-18T16:09:27;83.97;;;42.37;;
59424;SDS011;45231;44.826;20.312;2022-12-18T16:12:20;81.47;;;39.55;;
59424;SDS011;45231;44.826;20.312;2022-12-18T16:15:08;76.47;;;38.70;;